createdAt,value
2019-03-09T00:00:22.312Z,7.20
2019-03-09T00:01:22.226Z,7.80
2019-03-09T00:02:22.137Z,7.00
2019-03-09T00:03:22.054Z,6.50
2019-03-09T00:04:21.963Z,8.70
2019-03-09T00:05:21.888Z,9.30
2019-03-09T00:06:21.800Z,7.80
2019-03-09T00:07:21.713Z,5.60
2019-03-09T00:08:21.626Z,6.70
2019-03-09T00:09:21.538Z,6.90
2019-03-09T00:10:21.463Z,7.60
2019-03-09T00:11:21.378Z,6.40
2019-03-09T00:12:21.290Z,6.80
2019-03-09T00:13:21.203Z,7.30
2019-03-09T00:14:21.116Z,7.60
2019-03-09T00:15:21.030Z,9.30
2019-03-09T00:16:20.951Z,9.50
2019-03-09T00:17:20.867Z,7.30
2019-03-09T00:18:20.779Z,8.20
2019-03-09T00:19:20.690Z,8.30
2019-03-09T00:20:20.602Z,8.90
2019-03-09T00:21:20.765Z,7.40
2019-03-09T00:22:20.439Z,6.70
2019-03-09T00:23:20.353Z,9.10
2019-03-09T00:24:20.264Z,8.30
2019-03-09T00:25:20.178Z,8.00
2019-03-09T00:26:20.090Z,9.90
2019-03-09T00:27:29.217Z,6.50
2019-03-09T00:28:19.931Z,7.80
2019-03-09T00:29:19.845Z,7.30
2019-03-09T00:30:19.753Z,10.60
2019-03-09T00:31:19.665Z,10.20
2019-03-09T00:32:19.583Z,8.60
2019-03-09T00:33:19.503Z,8.30
2019-03-09T00:34:19.416Z,8.30
2019-03-09T00:35:19.330Z,6.30
2019-03-09T00:36:19.243Z,8.30
2019-03-09T00:37:19.154Z,7.50
2019-03-09T00:38:19.068Z,7.10
2019-03-09T00:39:19.016Z,7.90
2019-03-09T00:40:18.907Z,6.20
2019-03-09T00:41:18.816Z,8.40
2019-03-09T00:42:18.733Z,10.70
2019-03-09T00:43:18.642Z,6.00
2019-03-09T00:44:18.567Z,7.40
2019-03-09T00:45:18.480Z,7.10
2019-03-09T00:46:18.394Z,6.20
2019-03-09T00:47:18.305Z,7.10
2019-03-09T00:48:18.217Z,7.10
2019-03-09T00:49:18.133Z,9.00
2019-03-09T00:50:18.055Z,7.40
2019-03-09T00:51:17.968Z,7.50
2019-03-09T00:52:17.881Z,7.10
2019-03-09T00:53:17.805Z,7.90
2019-03-09T00:54:17.707Z,8.60
2019-03-09T00:55:17.624Z,7.70
2019-03-09T00:56:17.549Z,6.00
2019-03-09T00:57:17.456Z,10.70
2019-03-09T00:58:17.368Z,8.70
2019-03-09T00:59:17.282Z,8.60
2019-03-09T01:00:17.210Z,6.40
2019-03-09T01:01:17.131Z,6.90
2019-03-09T01:02:17.032Z,5.10
2019-03-09T01:03:16.948Z,6.50
2019-03-09T01:04:16.859Z,7.30
2019-03-09T01:05:16.769Z,8.80
2019-03-09T01:06:16.945Z,8.70
2019-03-09T01:07:16.607Z,9.50
2019-03-09T01:08:16.519Z,7.70
2019-03-09T01:09:16.432Z,7.30
2019-03-09T01:10:16.347Z,7.20
2019-03-09T01:11:16.259Z,6.70
2019-03-09T01:12:16.183Z,6.00
2019-03-09T01:13:16.095Z,8.40
2019-03-09T01:14:16.009Z,8.90
2019-03-09T01:15:15.933Z,9.00
2019-03-09T01:16:15.834Z,5.90
2019-03-09T01:17:15.759Z,8.60
2019-03-09T01:18:15.671Z,7.00
2019-03-09T01:19:15.585Z,4.90
2019-03-09T01:20:15.496Z,8.20
2019-03-09T01:21:15.409Z,6.60
2019-03-09T01:22:15.342Z,8.20
2019-03-09T01:23:15.247Z,8.00
2019-03-09T01:24:15.159Z,7.40
2019-03-09T01:25:15.075Z,7.10
2019-03-09T01:26:14.984Z,6.40
2019-03-09T01:27:14.909Z,8.10
2019-03-09T01:28:14.822Z,9.00
2019-03-09T01:29:14.735Z,7.50
2019-03-09T01:30:14.647Z,7.50
2019-03-09T01:31:14.560Z,7.30
2019-03-09T01:32:14.486Z,7.40
2019-03-09T01:33:14.401Z,9.00
2019-03-09T01:34:14.311Z,5.60
2019-03-09T01:35:14.222Z,6.00
2019-03-09T01:36:14.138Z,9.50
2019-03-09T01:37:14.052Z,10.30
2019-03-09T01:38:13.982Z,7.90
2019-03-09T01:39:13.888Z,6.80
2019-03-09T01:40:13.799Z,8.40
2019-03-09T01:41:14.012Z,8.80
2019-03-09T01:42:13.625Z,7.00
2019-03-09T01:43:13.547Z,8.80
2019-03-09T01:44:13.462Z,7.10
2019-03-09T01:45:13.373Z,7.50
2019-03-09T01:46:13.290Z,8.60
2019-03-09T01:47:13.212Z,7.50
2019-03-09T01:48:13.123Z,7.80
2019-03-09T01:49:13.037Z,9.00
2019-03-09T01:50:12.949Z,6.70
2019-03-09T01:51:12.861Z,6.80
2019-03-09T01:52:12.774Z,8.10
2019-03-09T01:53:12.687Z,7.80
2019-03-09T01:54:12.615Z,6.90
2019-03-09T01:55:12.524Z,7.80
2019-03-09T01:56:12.438Z,7.10
2019-03-09T01:57:12.350Z,6.90
2019-03-09T01:58:12.277Z,7.30
2019-03-09T01:59:12.176Z,8.80
2019-03-09T02:00:12.099Z,7.60
2019-03-09T02:01:12.014Z,7.20
2019-03-09T02:02:11.925Z,7.90
2019-03-09T02:03:11.842Z,7.90
2019-03-09T02:04:11.766Z,6.90
2019-03-09T02:05:11.675Z,10.00
2019-03-09T02:06:11.891Z,7.60
2019-03-09T02:07:11.501Z,7.60
2019-03-09T02:08:11.414Z,8.30
2019-03-09T02:09:11.326Z,8.10
2019-03-09T02:10:11.255Z,6.80
2019-03-09T02:11:11.165Z,7.40
2019-03-09T02:12:11.076Z,8.50
2019-03-09T02:13:10.990Z,7.90
2019-03-09T02:14:10.901Z,8.40
2019-03-09T02:15:10.815Z,8.50
2019-03-09T02:16:10.743Z,6.30
2019-03-09T02:17:10.653Z,7.80
2019-03-09T02:18:10.564Z,6.30
2019-03-09T02:19:10.477Z,9.10
2019-03-09T02:20:10.391Z,6.60
2019-03-09T02:21:10.315Z,6.80
2019-03-09T02:22:10.240Z,6.70
2019-03-09T02:23:10.141Z,6.80
2019-03-09T02:24:10.053Z,8.70
2019-03-09T02:25:09.967Z,9.40
2019-03-09T02:26:09.891Z,8.70
2019-03-09T02:27:09.803Z,7.60
2019-03-09T02:28:09.717Z,7.40
2019-03-09T02:29:09.628Z,7.90
2019-03-09T02:30:09.554Z,7.40
2019-03-09T02:31:09.467Z,6.90
2019-03-09T02:32:09.378Z,6.50
2019-03-09T02:33:09.292Z,7.90
2019-03-09T02:34:09.204Z,8.50
2019-03-09T02:35:09.120Z,8.10
2019-03-09T02:36:09.043Z,7.80
2019-03-09T02:37:08.957Z,6.00
2019-03-09T02:38:08.870Z,8.60
2019-03-09T02:39:08.779Z,6.90
2019-03-09T02:40:08.694Z,8.40
2019-03-09T02:41:08.607Z,7.20
2019-03-09T02:42:08.543Z,9.30
2019-03-09T02:43:08.443Z,7.90
2019-03-09T02:44:08.357Z,8.30
2019-03-09T02:45:08.270Z,6.90
2019-03-09T02:46:08.192Z,7.20
2019-03-09T02:47:08.115Z,6.80
2019-03-09T02:48:08.018Z,6.90
2019-03-09T02:49:07.931Z,9.10
2019-03-09T02:50:07.844Z,6.60
2019-03-09T02:51:07.758Z,6.30
2019-03-09T02:52:07.681Z,6.40
2019-03-09T02:53:07.594Z,6.10
2019-03-09T02:54:07.508Z,8.00
2019-03-09T02:55:07.420Z,6.00
2019-03-09T02:56:07.336Z,6.90
2019-03-09T02:57:07.259Z,9.40
2019-03-09T02:58:07.171Z,6.40
2019-03-09T02:59:07.083Z,8.30
2019-03-09T03:00:06.998Z,6.40
2019-03-09T03:01:06.925Z,8.10
2019-03-09T03:02:06.833Z,6.60
2019-03-09T03:03:06.746Z,9.00
2019-03-09T03:04:06.660Z,6.80
2019-03-09T03:05:06.571Z,6.10
2019-03-09T03:06:06.498Z,9.20
2019-03-09T03:07:06.408Z,6.50
2019-03-09T03:08:06.336Z,7.70
2019-03-09T03:09:06.233Z,7.40
2019-03-09T03:10:06.148Z,7.70
2019-03-09T03:11:06.073Z,7.60
2019-03-09T03:12:05.984Z,7.20
2019-03-09T03:13:05.897Z,7.30
2019-03-09T03:14:05.832Z,6.90
2019-03-09T03:15:05.721Z,7.50
2019-03-09T03:16:05.652Z,5.80
2019-03-09T03:17:05.559Z,7.00
2019-03-09T03:18:05.495Z,7.10
2019-03-09T03:19:05.386Z,7.20
2019-03-09T03:20:05.298Z,7.10
2019-03-09T03:21:47.335Z,8.60
2019-03-09T03:22:47.248Z,6.90
2019-03-09T03:23:47.160Z,6.00
2019-03-09T03:24:47.079Z,7.00
2019-03-09T03:25:46.999Z,7.60
2019-03-09T03:26:46.915Z,7.60
2019-03-09T03:27:46.823Z,7.40
2019-03-09T03:28:46.749Z,5.90
2019-03-09T03:29:47.274Z,6.20
2019-03-09T03:30:46.576Z,7.10
2019-03-09T03:31:46.493Z,7.20
2019-03-09T03:32:46.421Z,6.50
2019-03-09T03:33:46.316Z,6.50
2019-03-09T03:34:46.265Z,7.30
2019-03-09T03:35:46.149Z,6.70
2019-03-09T03:36:46.062Z,7.20
2019-03-09T03:37:45.990Z,9.20
2019-03-09T03:38:45.888Z,6.20
2019-03-09T03:39:45.832Z,7.60
2019-03-09T03:40:45.733Z,6.80
2019-03-09T03:41:45.650Z,6.40
2019-03-09T03:42:45.551Z,7.20
2019-03-09T03:43:45.465Z,5.30
2019-03-09T03:44:45.488Z,6.50
2019-03-09T03:45:45.301Z,6.00
2019-03-09T03:46:45.218Z,7.10
2019-03-09T03:47:45.125Z,8.10
2019-03-09T03:48:45.054Z,6.80
2019-03-09T03:49:44.966Z,7.80
2019-03-09T03:50:44.877Z,7.30
2019-03-09T03:51:44.787Z,6.90
2019-03-09T03:52:44.718Z,6.50
2019-03-09T03:53:44.639Z,7.30
2019-03-09T03:54:44.538Z,5.90
2019-03-09T03:55:44.451Z,6.40
2019-03-09T03:56:44.364Z,6.70
2019-03-09T03:57:44.293Z,7.20
2019-03-09T03:58:44.206Z,8.30
2019-03-09T03:59:44.126Z,9.00
2019-03-09T04:00:44.032Z,6.70
2019-03-09T04:01:43.951Z,7.10
2019-03-09T04:02:43.865Z,5.70
2019-03-09T04:03:43.778Z,6.60
2019-03-09T04:04:43.694Z,6.90
2019-03-09T04:05:43.602Z,7.30
2019-03-09T04:06:43.514Z,6.50
2019-03-09T04:07:43.449Z,7.80
2019-03-09T04:08:43.352Z,8.20
2019-03-09T04:09:43.272Z,7.20
2019-03-09T04:10:43.179Z,6.10
2019-03-09T04:11:43.092Z,5.60
2019-03-09T04:12:43.047Z,7.80
2019-03-09T04:13:42.929Z,6.10
2019-03-09T04:14:42.839Z,7.90
2019-03-09T04:15:42.753Z,6.80
2019-03-09T04:16:42.667Z,6.80
2019-03-09T04:17:42.591Z,5.60
2019-03-09T04:18:42.510Z,6.70
2019-03-09T04:19:42.426Z,7.10
2019-03-09T04:20:42.330Z,6.80
2019-03-09T04:21:42.242Z,6.70
2019-03-09T04:22:42.167Z,6.80
2019-03-09T04:23:42.081Z,6.40
2019-03-09T04:24:41.992Z,7.20
2019-03-09T04:25:41.905Z,5.80
2019-03-09T04:26:41.819Z,6.20
2019-03-09T04:27:41.741Z,6.50
2019-03-09T04:28:41.656Z,5.70
2019-03-09T04:29:41.573Z,7.60
2019-03-09T04:30:41.481Z,6.10
2019-03-09T04:31:41.397Z,6.30
2019-03-09T04:32:41.317Z,6.30
2019-03-09T04:33:41.231Z,7.20
2019-03-09T04:34:41.143Z,7.90
2019-03-09T04:35:41.056Z,9.30
2019-03-09T04:36:40.982Z,6.10
2019-03-09T04:37:40.894Z,6.00
2019-03-09T04:38:40.807Z,8.10
2019-03-09T04:39:40.718Z,8.90
2019-03-09T04:40:40.633Z,5.20
2019-03-09T04:41:40.557Z,7.30
2019-03-09T04:42:40.470Z,7.40
2019-03-09T04:43:40.384Z,9.20
2019-03-09T04:44:40.295Z,7.00
2019-03-09T04:45:40.207Z,6.10
2019-03-09T04:46:40.132Z,6.90
2019-03-09T04:47:40.044Z,7.30
2019-03-09T04:48:39.957Z,7.60
2019-03-09T04:49:39.869Z,8.80
2019-03-09T04:50:39.794Z,6.60
2019-03-09T04:51:39.707Z,7.50
2019-03-09T04:52:39.637Z,7.30
2019-03-09T04:53:39.533Z,6.40
2019-03-09T04:54:39.445Z,6.10
2019-03-09T04:55:39.368Z,6.10
2019-03-09T04:56:39.293Z,7.00
2019-03-09T04:57:39.194Z,7.00
2019-03-09T04:58:39.108Z,8.00
2019-03-09T04:59:39.020Z,7.30
2019-03-09T05:00:38.944Z,6.40
2019-03-09T05:01:38.870Z,7.80
2019-03-09T05:02:38.770Z,6.70
2019-03-09T05:03:38.683Z,6.20
2019-03-09T05:04:38.595Z,9.60
2019-03-09T05:05:38.524Z,12.40
2019-03-09T05:06:38.434Z,7.90
2019-03-09T05:07:38.345Z,10.50
2019-03-09T05:08:38.260Z,8.40
2019-03-09T05:09:38.184Z,9.10
2019-03-09T05:10:38.097Z,8.80
2019-03-09T05:11:38.016Z,8.70
2019-03-09T05:12:37.921Z,8.50
2019-03-09T05:13:37.835Z,7.70
2019-03-09T05:14:37.746Z,9.70
2019-03-09T05:15:37.672Z,8.60
2019-03-09T05:16:37.585Z,8.00
2019-03-09T05:17:37.496Z,8.40
2019-03-09T05:18:37.411Z,10.40
2019-03-09T05:19:37.322Z,7.70
2019-03-09T05:20:37.236Z,8.10
2019-03-09T05:21:37.160Z,7.80
2019-03-09T05:22:37.072Z,8.10
2019-03-09T05:23:36.985Z,8.20
2019-03-09T05:24:36.900Z,8.10
2019-03-09T05:25:36.812Z,8.40
2019-03-09T05:26:36.932Z,8.90
2019-03-09T05:27:36.651Z,8.60
2019-03-09T05:28:36.562Z,8.90
2019-03-09T05:29:36.473Z,7.80
2019-03-09T05:30:36.388Z,7.60
2019-03-09T05:31:36.299Z,8.40
2019-03-09T05:32:36.223Z,9.60
2019-03-09T05:33:36.136Z,8.30
2019-03-09T05:34:36.048Z,7.30
2019-03-09T05:35:35.963Z,10.60
2019-03-09T05:36:35.919Z,10.50
2019-03-09T05:37:42.861Z,7.10
2019-03-09T05:38:35.712Z,8.20
2019-03-09T05:39:35.624Z,6.90
2019-03-09T05:40:35.538Z,8.00
2019-03-09T05:41:35.449Z,9.40
2019-03-09T05:42:35.362Z,9.50
2019-03-09T05:43:35.276Z,8.30
2019-03-09T05:44:35.199Z,7.70
2019-03-09T05:45:35.114Z,8.40
2019-03-09T05:46:35.025Z,9.90
2019-03-09T05:47:34.942Z,7.60
2019-03-09T05:48:34.863Z,12.70
2019-03-09T05:49:34.776Z,7.00
2019-03-09T05:50:34.691Z,7.10
2019-03-09T05:51:34.602Z,8.70
2019-03-09T05:52:34.515Z,7.80
2019-03-09T05:53:34.427Z,12.90
2019-03-09T05:54:34.339Z,9.20
2019-03-09T05:55:34.263Z,9.00
2019-03-09T05:56:34.177Z,8.50
2019-03-09T05:57:34.090Z,9.90
2019-03-09T05:58:34.001Z,10.40
2019-03-09T05:59:33.919Z,8.50
2019-03-09T06:00:33.828Z,11.70
2019-03-09T06:01:33.751Z,9.40
2019-03-09T06:02:33.665Z,11.40
2019-03-09T06:03:33.593Z,9.70
2019-03-09T06:04:33.490Z,12.40
2019-03-09T06:05:33.415Z,10.20
2019-03-09T06:06:33.315Z,11.80
2019-03-09T06:07:33.241Z,12.10
2019-03-09T06:08:33.152Z,10.10
2019-03-09T06:09:33.066Z,11.40
2019-03-09T06:10:32.978Z,12.50
2019-03-09T06:11:33.292Z,13.20
2019-03-09T06:12:32.803Z,11.90
2019-03-09T06:13:32.729Z,10.90
2019-03-09T06:14:32.646Z,9.10
2019-03-09T06:15:32.553Z,10.90
2019-03-09T06:16:32.473Z,10.60
2019-03-09T06:17:32.378Z,10.70
2019-03-09T06:18:32.293Z,16.30
2019-03-09T06:19:32.203Z,11.70
2019-03-09T06:20:32.117Z,11.80
2019-03-09T06:21:32.044Z,12.30
2019-03-09T06:22:31.957Z,13.00
2019-03-09T06:23:31.871Z,15.00
2019-03-09T06:24:31.780Z,10.70
2019-03-09T06:25:31.693Z,14.80
2019-03-09T06:26:31.605Z,16.30
2019-03-09T06:27:31.518Z,12.00
2019-03-09T06:28:31.444Z,14.30
2019-03-09T06:29:31.369Z,11.50
2019-03-09T06:30:31.270Z,12.90
2019-03-09T06:31:31.182Z,12.90
2019-03-09T06:32:31.093Z,12.60
2019-03-09T06:33:31.005Z,12.60
2019-03-09T06:34:30.919Z,12.20
2019-03-09T06:35:30.831Z,12.00
2019-03-09T06:36:30.756Z,11.70
2019-03-09T06:37:30.669Z,13.90
2019-03-09T06:38:30.596Z,10.90
2019-03-09T06:39:30.494Z,11.30
2019-03-09T06:40:30.406Z,14.50
2019-03-09T06:41:30.318Z,13.40
2019-03-09T06:42:30.231Z,12.80
2019-03-09T06:43:30.145Z,13.70
2019-03-09T06:44:30.070Z,14.90
2019-03-09T06:45:29.981Z,13.20
2019-03-09T06:46:30.145Z,12.40
2019-03-09T06:47:29.806Z,12.10
2019-03-09T06:48:29.720Z,14.00
2019-03-09T06:49:29.632Z,13.60
2019-03-09T06:50:29.545Z,11.60
2019-03-09T06:51:29.460Z,13.80
2019-03-09T06:52:29.384Z,12.10
2019-03-09T06:53:29.295Z,11.00
2019-03-09T06:54:29.208Z,12.20
2019-03-09T06:55:29.121Z,12.40
2019-03-09T06:56:29.035Z,10.70
2019-03-09T06:57:28.946Z,12.60
2019-03-09T06:58:28.858Z,12.90
2019-03-09T06:59:28.783Z,11.20
2019-03-09T07:00:28.695Z,11.00
2019-03-09T07:01:28.608Z,11.50
2019-03-09T07:02:28.521Z,11.30
2019-03-09T07:03:28.434Z,13.90
2019-03-09T07:04:28.346Z,10.50
2019-03-09T07:05:28.259Z,12.20
2019-03-09T07:06:28.184Z,10.00
2019-03-09T07:07:28.097Z,11.30
2019-03-09T07:08:28.011Z,11.00
2019-03-09T07:09:27.927Z,10.30
2019-03-09T07:10:27.834Z,9.90
2019-03-09T07:11:28.047Z,9.00
2019-03-09T07:12:27.672Z,10.20
2019-03-09T07:13:27.584Z,9.90
2019-03-09T07:14:27.497Z,10.00
2019-03-09T07:15:27.410Z,9.00
2019-03-09T07:16:27.326Z,10.30
2019-03-09T07:17:27.234Z,9.70
2019-03-09T07:18:27.147Z,9.60
2019-03-09T07:19:27.060Z,11.70
2019-03-09T07:20:26.974Z,8.20
2019-03-09T07:21:27.149Z,9.10
2019-03-09T07:22:26.825Z,11.20
2019-03-09T07:23:26.725Z,10.90
2019-03-09T07:24:26.638Z,8.80
2019-03-09T07:25:26.551Z,12.00
2019-03-09T07:26:26.461Z,8.80
2019-03-09T07:27:26.387Z,7.10
2019-03-09T07:28:26.299Z,8.30
2019-03-09T07:29:26.227Z,8.40
2019-03-09T07:30:26.124Z,8.70
2019-03-09T07:31:26.036Z,7.70
2019-03-09T07:32:25.955Z,8.90
2019-03-09T07:33:25.863Z,8.70
2019-03-09T07:34:25.788Z,8.30
2019-03-09T07:35:25.700Z,8.20
2019-03-09T07:36:25.611Z,9.30
2019-03-09T07:37:25.536Z,7.90
2019-03-09T07:38:25.449Z,5.90
2019-03-09T07:39:25.351Z,6.60
2019-03-09T07:40:25.278Z,8.00
2019-03-09T07:41:25.187Z,9.90
2019-03-09T07:42:25.100Z,5.70
2019-03-09T07:43:25.012Z,7.00
2019-03-09T07:44:24.928Z,8.10
2019-03-09T07:45:24.839Z,7.10
2019-03-09T07:46:24.762Z,7.90
2019-03-09T07:47:24.678Z,11.40
2019-03-09T07:48:24.588Z,7.40
2019-03-09T07:49:24.504Z,7.00
2019-03-09T07:50:24.416Z,5.00
2019-03-09T07:51:24.328Z,6.20
2019-03-09T07:52:24.252Z,6.80
2019-03-09T07:53:24.173Z,5.50
2019-03-09T07:54:24.076Z,5.40
2019-03-09T07:55:24.002Z,4.60
2019-03-09T07:56:23.902Z,6.40
2019-03-09T07:57:23.829Z,4.50
2019-03-09T07:58:23.739Z,5.40
2019-03-09T07:59:23.652Z,8.00
2019-03-09T08:00:23.565Z,3.60
2019-03-09T08:01:24.034Z,5.40
2019-03-09T08:02:23.391Z,4.40
2019-03-09T08:03:23.314Z,4.50
2019-03-09T08:04:23.228Z,4.80
2019-03-09T08:05:23.143Z,6.00
2019-03-09T08:06:23.054Z,6.70
2019-03-09T08:07:22.966Z,4.30
2019-03-09T08:08:22.890Z,3.70
2019-03-09T08:09:24.522Z,4.20
2019-03-09T08:10:22.727Z,3.60
2019-03-09T08:11:22.629Z,5.60
2019-03-09T08:12:24.037Z,4.80
2019-03-09T08:13:22.479Z,2.70
2019-03-09T08:14:22.383Z,3.10
2019-03-09T08:15:22.339Z,2.80
2019-03-09T08:16:22.209Z,3.50
2019-03-09T08:17:22.129Z,2.70
2019-03-09T08:18:22.041Z,2.50
2019-03-09T08:19:21.964Z,2.80
2019-03-09T08:20:21.866Z,3.20
2019-03-09T08:21:21.782Z,2.60
2019-03-09T08:22:21.705Z,2.80
2019-03-09T08:23:21.619Z,2.60
2019-03-09T08:24:21.531Z,3.80
2019-03-09T08:25:21.442Z,3.60
2019-03-09T08:26:21.360Z,2.50
2019-03-09T08:27:21.286Z,2.90
2019-03-09T08:28:21.193Z,3.80
2019-03-09T08:29:21.109Z,3.60
2019-03-09T08:30:21.033Z,2.70
2019-03-09T08:31:20.957Z,3.80
2019-03-09T08:32:20.862Z,3.00
2019-03-09T08:33:20.770Z,4.10
2019-03-09T08:34:20.703Z,3.40
2019-03-09T08:35:20.593Z,4.50
2019-03-09T08:36:20.526Z,3.30
2019-03-09T08:37:20.431Z,3.90
2019-03-09T08:38:20.358Z,4.60
2019-03-09T08:39:20.272Z,4.20
2019-03-09T08:40:20.171Z,4.90
2019-03-09T08:41:20.099Z,4.20
2019-03-09T08:42:20.008Z,3.40
2019-03-09T08:43:19.919Z,4.80
2019-03-09T08:44:19.832Z,3.40
2019-03-09T08:45:19.773Z,3.20
2019-03-09T08:46:19.669Z,4.20
2019-03-09T08:47:19.612Z,2.90
2019-03-09T08:48:19.497Z,4.10
2019-03-09T08:49:19.407Z,3.50
2019-03-09T08:50:19.334Z,3.80
2019-03-09T08:51:19.279Z,3.70
2019-03-09T08:52:19.158Z,5.30
2019-03-09T08:53:19.101Z,3.70
2019-03-09T08:54:18.985Z,4.70
2019-03-09T08:55:18.910Z,3.50
2019-03-09T08:56:18.843Z,3.90
2019-03-09T08:57:18.733Z,3.30
2019-03-09T08:58:18.717Z,4.10
2019-03-09T08:59:18.583Z,4.20
2019-03-09T09:00:18.523Z,4.20
2019-03-09T09:01:18.408Z,6.80
2019-03-09T09:02:18.344Z,5.20
2019-03-09T09:03:18.222Z,4.50
2019-03-09T09:04:18.146Z,3.30
2019-03-09T09:05:18.059Z,2.80
2019-03-09T09:06:17.971Z,2.00
2019-03-09T09:07:17.888Z,4.20
2019-03-09T09:08:17.807Z,1.80
2019-03-09T09:09:17.734Z,2.60
2019-03-09T09:10:17.638Z,2.20
2019-03-09T09:11:17.797Z,2.50
2019-03-09T09:12:17.473Z,1.90
2019-03-09T09:13:17.388Z,2.40
2019-03-09T09:14:17.299Z,1.90
2019-03-09T09:15:17.212Z,2.50
2019-03-09T09:16:17.135Z,1.80
2019-03-09T09:17:17.063Z,2.80
2019-03-09T09:18:16.960Z,2.20
2019-03-09T09:19:16.889Z,2.60
2019-03-09T09:20:16.798Z,3.30
2019-03-09T09:21:16.723Z,2.60
2019-03-09T09:22:16.639Z,2.30
2019-03-09T09:23:16.548Z,2.40
2019-03-09T09:24:16.473Z,2.20
2019-03-09T09:25:16.387Z,2.00
2019-03-09T09:26:16.299Z,5.10
2019-03-09T09:27:16.223Z,4.40
2019-03-09T09:28:16.137Z,2.20
2019-03-09T09:29:16.068Z,3.70
2019-03-09T09:30:15.977Z,3.50
2019-03-09T09:31:15.889Z,3.80
2019-03-09T09:32:15.812Z,3.30
2019-03-09T09:33:15.727Z,2.30
2019-03-09T09:34:15.649Z,3.40
2019-03-09T09:35:15.562Z,3.30
2019-03-09T09:36:15.487Z,2.40
2019-03-09T09:37:15.404Z,3.10
2019-03-09T09:38:15.313Z,2.80
2019-03-09T09:39:15.226Z,3.30
2019-03-09T09:40:15.150Z,2.80
2019-03-09T09:41:15.063Z,4.00
2019-03-09T09:42:14.988Z,3.30
2019-03-09T09:43:14.902Z,3.40
2019-03-09T09:44:14.825Z,3.80
2019-03-09T09:45:14.739Z,3.70
2019-03-09T09:46:14.711Z,3.40
2019-03-09T09:47:14.578Z,3.30
2019-03-09T09:48:14.489Z,3.40
2019-03-09T09:49:14.416Z,4.10
2019-03-09T09:50:14.330Z,2.40
2019-03-09T09:51:14.239Z,3.30
2019-03-09T09:52:14.165Z,3.90
2019-03-09T09:53:14.077Z,3.00
2019-03-09T09:54:13.989Z,3.10
2019-03-09T09:55:13.914Z,3.40
2019-03-09T09:56:13.830Z,4.70
2019-03-09T09:57:13.751Z,3.00
2019-03-09T09:58:13.665Z,3.30
2019-03-09T09:59:14.539Z,4.50
2019-03-09T10:00:13.502Z,2.40
2019-03-09T10:01:13.417Z,2.10
2019-03-09T10:02:13.340Z,3.20
2019-03-09T10:03:13.252Z,4.00
2019-03-09T10:04:13.172Z,5.90
2019-03-09T10:05:13.091Z,4.50
2019-03-09T10:06:13.004Z,5.10
2019-03-09T10:07:12.932Z,4.10
2019-03-09T10:08:12.843Z,3.60
2019-03-09T10:09:12.759Z,4.90
2019-03-09T10:10:12.678Z,5.00
2019-03-09T10:11:12.593Z,4.30
2019-03-09T10:12:12.506Z,3.70
2019-03-09T10:13:12.443Z,4.70
2019-03-09T10:14:12.341Z,3.20
2019-03-09T10:15:12.272Z,3.90
2019-03-09T10:16:12.178Z,5.00
2019-03-09T10:17:12.105Z,5.50
2019-03-09T10:18:12.017Z,4.60
2019-03-09T10:19:11.930Z,4.30
2019-03-09T10:20:11.854Z,4.30
2019-03-09T10:21:11.769Z,5.00
2019-03-09T10:22:11.680Z,7.60
2019-03-09T10:23:11.605Z,3.60
2019-03-09T10:24:11.517Z,6.30
2019-03-09T10:25:11.445Z,3.40
2019-03-09T10:26:11.367Z,3.60
2019-03-09T10:27:11.282Z,4.70
2019-03-09T10:28:11.194Z,3.20
2019-03-09T10:29:11.117Z,5.20
2019-03-09T10:30:11.031Z,5.80
2019-03-09T10:31:10.943Z,4.20
2019-03-09T10:32:10.868Z,6.10
2019-03-09T10:33:10.780Z,3.70
2019-03-09T10:34:10.707Z,4.50
2019-03-09T10:35:10.619Z,6.50
2019-03-09T10:36:10.553Z,2.50
2019-03-09T10:37:10.456Z,3.80
2019-03-09T10:38:10.380Z,2.80
2019-03-09T10:39:10.294Z,3.60
2019-03-09T10:40:10.219Z,4.60
2019-03-09T10:41:10.131Z,4.70
2019-03-09T10:42:10.057Z,5.30
2019-03-09T10:43:09.970Z,4.90
2019-03-09T10:44:09.895Z,2.50
2019-03-09T10:45:09.807Z,3.20
2019-03-09T10:46:09.732Z,4.20
2019-03-09T10:47:09.646Z,2.80
2019-03-09T10:48:09.570Z,5.00
2019-03-09T10:49:09.484Z,3.00
2019-03-09T10:50:09.406Z,4.00
2019-03-09T10:51:09.319Z,4.30
2019-03-09T10:52:09.234Z,5.20
2019-03-09T10:53:09.157Z,5.10
2019-03-09T10:54:09.070Z,3.90
2019-03-09T10:55:08.995Z,3.70
2019-03-09T10:56:08.908Z,3.50
2019-03-09T10:57:08.833Z,5.30
2019-03-09T10:58:08.757Z,4.10
2019-03-09T10:59:08.671Z,4.00
2019-03-09T11:00:08.584Z,4.20
2019-03-09T11:01:08.509Z,4.90
2019-03-09T11:02:08.421Z,6.80
2019-03-09T11:03:08.335Z,4.40
2019-03-09T11:04:08.261Z,4.60
2019-03-09T11:05:08.172Z,7.20
2019-03-09T11:06:08.101Z,3.50
2019-03-09T11:07:08.011Z,3.40
2019-03-09T11:08:07.938Z,4.40
2019-03-09T11:09:07.848Z,4.00
2019-03-09T11:10:07.761Z,3.20
2019-03-09T11:11:07.684Z,5.80
2019-03-09T11:12:07.608Z,5.30
2019-03-09T11:13:07.525Z,5.10
2019-03-09T11:14:07.436Z,3.70
2019-03-09T11:15:07.360Z,4.90
2019-03-09T11:16:07.273Z,5.40
2019-03-09T11:17:07.199Z,5.40
2019-03-09T11:18:07.113Z,5.20
2019-03-09T11:19:07.023Z,6.60
2019-03-09T11:20:06.949Z,5.90
2019-03-09T11:21:07.110Z,3.90
2019-03-09T11:22:06.786Z,5.50
2019-03-09T11:23:06.699Z,2.90
2019-03-09T11:24:06.630Z,3.50
2019-03-09T11:25:06.536Z,3.70
2019-03-09T11:26:06.452Z,4.90
2019-03-09T11:27:06.377Z,4.80
2019-03-09T11:28:06.301Z,4.70
2019-03-09T11:29:06.215Z,4.70
2019-03-09T11:30:06.125Z,4.40
2019-03-09T11:31:06.051Z,4.10
2019-03-09T11:32:05.964Z,3.90
2019-03-09T11:33:05.877Z,5.40
2019-03-09T11:34:05.800Z,6.20
2019-03-09T11:35:05.712Z,3.40
2019-03-09T11:36:05.637Z,4.80
2019-03-09T11:37:05.552Z,6.00
2019-03-09T11:38:05.476Z,6.30
2019-03-09T11:39:05.387Z,4.00
2019-03-09T11:40:05.328Z,4.40
2019-03-09T11:41:05.226Z,4.90
2019-03-09T11:42:05.140Z,4.30
2019-03-09T11:43:05.144Z,4.30
2019-03-09T11:44:04.988Z,3.30
2019-03-09T11:45:04.903Z,3.70
2019-03-09T11:46:04.814Z,3.70
2019-03-09T11:47:04.738Z,2.00
2019-03-09T11:48:04.665Z,3.30
2019-03-09T11:49:04.578Z,5.50
2019-03-09T11:50:04.503Z,4.10
2019-03-09T11:51:04.414Z,3.00
2019-03-09T11:52:04.339Z,3.60
2019-03-09T11:53:04.253Z,2.60
2019-03-09T11:54:04.178Z,4.20
2019-03-09T11:55:04.090Z,4.00
2019-03-09T11:56:04.015Z,5.80
2019-03-09T11:57:03.928Z,3.90
2019-03-09T11:58:03.854Z,3.10
2019-03-09T11:59:03.777Z,3.70
2019-03-09T12:00:03.690Z,3.30
2019-03-09T12:01:03.621Z,3.40
2019-03-09T12:02:03.529Z,2.00
2019-03-09T12:03:03.454Z,3.30
2019-03-09T12:04:03.365Z,3.30
2019-03-09T12:05:03.290Z,3.80
2019-03-09T12:06:03.204Z,3.70
2019-03-09T12:07:03.129Z,3.60
2019-03-09T12:08:03.041Z,4.70
2019-03-09T12:09:02.966Z,5.20
2019-03-09T12:10:02.890Z,4.10
2019-03-09T12:11:02.809Z,5.10
2019-03-09T12:12:02.729Z,5.10
2019-03-09T12:13:02.641Z,4.00
2019-03-09T12:14:02.579Z,4.60
2019-03-09T12:15:02.491Z,4.40
2019-03-09T12:16:02.405Z,5.30
2019-03-09T12:17:02.335Z,5.50
2019-03-09T12:18:02.244Z,4.70
2019-03-09T12:19:02.168Z,5.80
2019-03-09T12:20:02.092Z,4.30
2019-03-09T12:21:02.007Z,5.60
2019-03-09T12:22:01.930Z,3.70
2019-03-09T12:23:01.856Z,4.40
2019-03-09T12:24:01.773Z,4.70
2019-03-09T12:25:01.692Z,4.70
2019-03-09T12:26:01.634Z,3.60
2019-03-09T12:27:01.531Z,5.00
2019-03-09T12:28:01.459Z,5.60
2019-03-09T12:29:01.380Z,7.30
2019-03-09T12:30:03.689Z,6.70
2019-03-09T12:31:01.218Z,4.00
2019-03-09T12:32:01.143Z,7.00
2019-03-09T12:33:01.057Z,3.60
2019-03-09T12:34:00.981Z,5.40
2019-03-09T12:35:00.895Z,6.30
2019-03-09T12:36:00.819Z,5.50
2019-03-09T12:37:00.744Z,5.40
2019-03-09T12:38:00.657Z,5.20
2019-03-09T12:39:00.582Z,3.80
2019-03-09T12:40:00.509Z,6.60
2019-03-09T12:41:00.419Z,4.60
2019-03-09T12:42:00.345Z,7.20
2019-03-09T12:43:00.269Z,5.80
2019-03-09T12:44:00.182Z,5.80
2019-03-09T12:45:00.182Z,5.40
2019-03-09T12:46:00.019Z,7.20
2019-03-09T12:46:59.950Z,7.10
2019-03-09T12:47:59.859Z,6.90
2019-03-09T12:48:59.785Z,5.40
2019-03-09T12:49:59.694Z,6.40
2019-03-09T12:50:59.620Z,5.40
2019-03-09T12:51:59.535Z,5.90
2019-03-09T12:52:59.460Z,6.10
2019-03-09T12:53:59.374Z,5.20
2019-03-09T12:54:59.295Z,5.40
2019-03-09T12:55:59.209Z,5.60
2019-03-09T12:56:59.134Z,5.80
2019-03-09T12:57:59.047Z,7.40
2019-03-09T12:58:58.972Z,6.40
2019-03-09T12:59:58.886Z,6.90
2019-03-09T13:00:58.810Z,8.90
2019-03-09T13:01:58.725Z,6.20
2019-03-09T13:02:58.646Z,6.70
2019-03-09T13:03:58.560Z,4.50
2019-03-09T13:04:58.485Z,6.00
2019-03-09T13:05:58.396Z,8.10
2019-03-09T13:06:58.322Z,10.00
2019-03-09T13:07:58.243Z,8.00
2019-03-09T13:08:58.161Z,7.50
2019-03-09T13:09:58.072Z,5.20
2019-03-09T13:10:57.998Z,7.90
2019-03-09T13:11:57.910Z,7.80
2019-03-09T13:12:57.839Z,5.40
2019-03-09T13:13:57.747Z,5.50
2019-03-09T13:14:57.685Z,9.40